createdAt,value
2023-09-26T00:00:21.023Z,5.10
2023-09-26T00:03:09.539Z,6.10
2023-09-26T00:05:38.115Z,7.10
2023-09-26T00:08:06.881Z,6.90
2023-09-26T00:10:36.640Z,5.60
2023-09-26T00:13:05.251Z,6.60
2023-09-26T00:15:35.299Z,6.20
2023-09-26T00:18:03.973Z,6.00
2023-09-26T00:20:34.814Z,6.00
2023-09-26T00:23:03.314Z,7.10
2023-09-26T00:25:32.131Z,7.00
2023-09-26T00:28:00.621Z,7.20
2023-09-26T00:30:29.368Z,6.20
2023-09-26T00:32:58.033Z,6.10
2023-09-26T00:35:26.933Z,6.00
2023-09-26T00:37:55.820Z,7.40
2023-09-26T00:40:24.692Z,6.20
2023-09-26T00:42:53.429Z,6.70
2023-09-26T00:45:22.652Z,6.90
2023-09-26T00:47:51.668Z,6.40
2023-09-26T00:50:23.640Z,7.80
2023-09-26T00:52:54.835Z,6.30
2023-09-26T00:55:25.871Z,6.40
2023-09-26T00:57:55.992Z,6.30
2023-09-26T01:00:25.929Z,6.00
2023-09-26T01:02:56.179Z,6.30
2023-09-26T01:05:25.329Z,6.60
2023-09-26T01:07:54.826Z,7.30
2023-09-26T01:10:23.639Z,6.70
2023-09-26T01:12:52.312Z,7.00
2023-09-26T01:15:40.959Z,7.10
2023-09-26T01:18:17.994Z,7.10
2023-09-26T01:20:47.538Z,6.50
2023-09-26T01:23:17.754Z,6.70
2023-09-26T01:25:46.540Z,6.30
2023-09-26T01:28:18.343Z,6.50
2023-09-26T01:30:47.638Z,7.20
2023-09-26T01:33:21.567Z,6.80
2023-09-26T01:35:52.826Z,6.40
2023-09-26T01:38:23.407Z,6.80
2023-09-26T01:40:52.022Z,7.10
2023-09-26T01:43:21.024Z,7.20
2023-09-26T01:45:50.152Z,6.30
2023-09-26T01:48:18.733Z,6.80
2023-09-26T01:50:47.229Z,7.20
2023-09-26T01:53:15.853Z,6.90
2023-09-26T01:55:44.430Z,5.80
2023-09-26T01:58:12.943Z,7.10
2023-09-26T02:00:41.858Z,6.10
2023-09-26T02:03:10.452Z,6.00
2023-09-26T02:05:39.305Z,5.90
2023-09-26T02:08:07.886Z,6.00
2023-09-26T02:10:36.807Z,6.20
2023-09-26T02:13:05.442Z,6.10
2023-09-26T02:15:34.016Z,6.30
2023-09-26T02:18:02.517Z,7.50
2023-09-26T02:20:31.147Z,6.10
2023-09-26T02:23:00.943Z,6.80
2023-09-26T02:25:29.710Z,6.30
2023-09-26T02:27:58.580Z,6.80
2023-09-26T02:30:30.204Z,6.60
2023-09-26T02:32:58.807Z,6.40
2023-09-26T02:35:27.462Z,6.30
2023-09-26T02:37:56.124Z,6.80
2023-09-26T02:40:25.117Z,6.60
2023-09-26T02:42:53.825Z,6.30
2023-09-26T02:45:22.439Z,6.20
2023-09-26T02:47:50.973Z,5.90
2023-09-26T02:50:22.426Z,6.60
2023-09-26T02:52:51.050Z,7.00
2023-09-26T02:55:21.821Z,7.70
2023-09-26T02:57:50.428Z,6.50
2023-09-26T03:00:19.744Z,6.40
2023-09-26T03:02:49.721Z,6.80
2023-09-26T03:05:19.443Z,6.50
2023-09-26T03:07:51.237Z,6.60
2023-09-26T03:10:20.317Z,6.40
2023-09-26T03:12:50.168Z,5.50
2023-09-26T03:15:19.278Z,5.00
2023-09-26T03:17:48.896Z,5.50
2023-09-26T03:20:18.482Z,5.80
2023-09-26T03:22:47.095Z,7.10
2023-09-26T03:25:15.804Z,5.80
2023-09-26T03:27:47.222Z,6.50
2023-09-26T03:30:17.141Z,5.80
2023-09-26T03:32:45.689Z,6.50
2023-09-26T03:35:14.417Z,6.40
2023-09-26T03:37:44.262Z,6.70
2023-09-26T03:40:13.154Z,5.70
2023-09-26T03:42:43.343Z,6.30
2023-09-26T03:45:12.130Z,5.50
2023-09-26T03:47:41.145Z,5.30
2023-09-26T03:50:10.153Z,6.30
2023-09-26T03:52:39.149Z,7.00
2023-09-26T03:55:08.627Z,5.90
2023-09-26T03:57:37.482Z,5.60
2023-09-26T04:00:18.104Z,5.80
2023-09-26T04:02:46.865Z,6.40
2023-09-26T04:05:15.849Z,5.80
2023-09-26T04:07:45.085Z,5.60
2023-09-26T04:10:13.788Z,6.50
2023-09-26T04:12:42.447Z,5.20
2023-09-26T04:15:11.334Z,5.50
2023-09-26T04:17:40.083Z,5.80
2023-09-26T04:20:26.570Z,5.20
2023-09-26T04:23:02.185Z,5.80
2023-09-26T04:25:32.093Z,5.80
2023-09-26T04:28:00.940Z,5.90
2023-09-26T04:30:30.169Z,5.20
2023-09-26T04:32:59.043Z,5.60
2023-09-26T04:35:27.579Z,7.50
2023-09-26T04:37:56.204Z,6.30
2023-09-26T04:40:25.441Z,6.20
2023-09-26T04:42:53.996Z,6.40
2023-09-26T04:45:22.593Z,5.90
2023-09-26T04:47:51.076Z,6.80
2023-09-26T04:50:19.703Z,7.30
2023-09-26T04:52:48.083Z,6.10
2023-09-26T04:55:17.334Z,6.50
2023-09-26T04:57:45.864Z,6.50
2023-09-26T05:00:18.769Z,6.90
2023-09-26T05:02:52.374Z,6.50
2023-09-26T05:05:21.256Z,6.80
2023-09-26T05:07:52.432Z,5.80
2023-09-26T05:10:21.836Z,6.40
2023-09-26T05:12:50.414Z,7.00
2023-09-26T05:15:18.835Z,6.40
2023-09-26T05:17:55.174Z,5.30
2023-09-26T05:20:25.326Z,5.80
2023-09-26T05:22:55.246Z,5.40
2023-09-26T05:25:23.868Z,6.40
2023-09-26T05:27:52.567Z,6.50
2023-09-26T05:30:21.600Z,6.40
2023-09-26T05:32:50.145Z,5.80
2023-09-26T05:35:19.380Z,6.40
2023-09-26T05:37:48.117Z,5.70
2023-09-26T05:40:16.793Z,6.00
2023-09-26T05:42:45.642Z,5.80
2023-09-26T05:45:14.170Z,5.70
2023-09-26T05:47:42.779Z,5.10
2023-09-26T05:50:11.538Z,6.20
2023-09-26T05:52:40.181Z,5.60
2023-09-26T05:55:10.143Z,5.70
2023-09-26T05:57:39.189Z,5.00
2023-09-26T06:00:14.096Z,5.30
2023-09-26T06:02:43.157Z,4.90
2023-09-26T06:05:15.766Z,6.10
2023-09-26T06:07:46.803Z,5.00
2023-09-26T06:10:15.912Z,5.60
2023-09-26T06:12:44.702Z,6.00
2023-09-26T06:15:13.232Z,6.00
2023-09-26T06:17:42.688Z,6.00
2023-09-26T06:20:13.590Z,5.10
2023-09-26T06:22:42.254Z,5.70
2023-09-26T06:25:10.877Z,8.70
2023-09-26T06:27:39.596Z,13.40
2023-09-26T06:30:11.330Z,19.50
2023-09-26T06:32:39.902Z,15.50
2023-09-26T06:35:09.011Z,15.10
2023-09-26T06:37:37.644Z,12.60
2023-09-26T06:40:07.012Z,22.90
2023-09-26T06:42:38.072Z,21.80
2023-09-26T06:45:10.568Z,18.90
2023-09-26T06:47:39.038Z,11.80
2023-09-26T06:50:11.811Z,15.20
2023-09-26T06:52:41.175Z,15.10
2023-09-26T06:55:12.881Z,18.60
2023-09-26T06:57:42.492Z,15.20
2023-09-26T07:00:17.957Z,14.00
2023-09-26T07:02:48.799Z,14.30
2023-09-26T07:05:18.271Z,12.50
2023-09-26T07:07:46.944Z,9.50
2023-09-26T07:10:15.849Z,12.20
2023-09-26T07:12:45.932Z,19.70
2023-09-26T07:15:14.792Z,12.00
2023-09-26T07:17:46.161Z,9.50
2023-09-26T07:20:15.238Z,7.40
2023-09-26T07:22:46.297Z,7.30
2023-09-26T07:25:15.252Z,14.50
2023-09-26T07:27:45.647Z,10.70
2023-09-26T07:30:16.113Z,8.30
2023-09-26T07:32:45.333Z,6.80
2023-09-26T07:35:14.163Z,7.90
2023-09-26T07:37:42.682Z,14.00
2023-09-26T07:40:11.586Z,10.30
2023-09-26T07:42:41.806Z,7.00
2023-09-26T07:45:11.147Z,7.10
2023-09-26T07:47:40.467Z,5.40
2023-09-26T07:50:09.385Z,4.80
2023-09-26T07:52:39.358Z,5.20
2023-09-26T07:55:08.588Z,5.20
2023-09-26T07:57:37.900Z,4.60
2023-09-26T08:00:14.926Z,4.20
2023-09-26T08:02:43.400Z,4.60
2023-09-26T08:05:12.152Z,5.10
2023-09-26T08:07:44.257Z,4.70
2023-09-26T08:10:13.959Z,4.30
2023-09-26T08:12:43.345Z,4.40
2023-09-26T08:15:12.874Z,3.90
2023-09-26T08:17:41.931Z,4.90
2023-09-26T08:20:10.757Z,4.10
2023-09-26T08:22:40.105Z,4.00
2023-09-26T08:25:09.648Z,4.10
2023-09-26T08:27:39.066Z,4.20
2023-09-26T08:30:09.948Z,3.60
2023-09-26T08:32:39.757Z,4.20
2023-09-26T08:35:12.447Z,4.10
2023-09-26T08:40:12.924Z,4.00
2023-09-26T08:42:51.099Z,4.70
2023-09-26T08:45:20.503Z,3.70
2023-09-26T08:47:50.106Z,3.90
2023-09-26T08:50:18.698Z,4.40
2023-09-26T08:52:47.416Z,3.70
2023-09-26T08:55:16.520Z,4.50
2023-09-26T08:57:46.362Z,3.90
2023-09-26T09:00:16.439Z,4.10
2023-09-26T09:02:45.029Z,3.90
2023-09-26T09:05:14.017Z,4.50
2023-09-26T09:07:42.510Z,7.20
2023-09-26T09:10:13.296Z,6.50
2023-09-26T09:12:42.834Z,3.70
2023-09-26T09:15:17.302Z,4.10
2023-09-26T09:17:50.587Z,4.20
2023-09-26T09:20:34.180Z,4.00
2023-09-26T09:23:07.644Z,4.00
2023-09-26T09:25:39.183Z,3.70
2023-09-26T09:28:09.008Z,3.90
2023-09-26T09:30:40.014Z,3.80
2023-09-26T09:33:10.853Z,3.70
2023-09-26T09:35:39.766Z,4.50
2023-09-26T09:38:10.339Z,3.50
2023-09-26T09:40:38.868Z,3.60
2023-09-26T09:43:07.425Z,4.40
2023-09-26T09:45:36.744Z,4.90
2023-09-26T09:48:10.226Z,4.30
2023-09-26T09:50:40.045Z,4.10
2023-09-26T09:53:10.488Z,3.60
2023-09-26T09:55:40.704Z,3.40
2023-09-26T09:58:13.419Z,3.60
2023-09-26T10:00:42.105Z,3.80
2023-09-26T10:03:13.335Z,4.00
2023-09-26T10:05:44.418Z,3.80
2023-09-26T10:08:14.688Z,4.00
2023-09-26T10:10:45.159Z,3.40
2023-09-26T10:13:35.000Z,3.40
2023-09-26T10:16:19.719Z,3.70
2023-09-26T10:18:51.996Z,3.90
2023-09-26T10:21:21.181Z,3.10
2023-09-26T10:24:11.757Z,3.80
2023-09-26T10:26:45.569Z,4.60
2023-09-26T10:29:28.692Z,3.50
2023-09-26T10:32:05.998Z,3.20
2023-09-26T10:37:28.139Z,2.80
2023-09-26T10:39:56.697Z,3.60
2023-09-26T10:43:07.924Z,3.50
2023-09-26T10:45:15.465Z,3.40
2023-09-26T10:47:46.006Z,3.50
2023-09-26T10:50:25.511Z,4.20
2023-09-26T10:52:54.491Z,3.50
2023-09-26T10:55:25.134Z,3.00
2023-09-26T11:00:23.714Z,3.70
2023-09-26T11:02:54.338Z,3.70
2023-09-26T11:05:29.023Z,4.00
2023-09-26T11:07:57.964Z,3.50
2023-09-26T11:10:26.794Z,3.20
2023-09-26T11:12:55.375Z,3.60
2023-09-26T11:15:23.964Z,3.60
2023-09-26T11:17:52.707Z,3.70
2023-09-26T11:20:21.564Z,3.50
2023-09-26T11:22:52.692Z,4.10
2023-09-26T11:25:21.161Z,4.80
2023-09-26T11:27:49.696Z,3.50
2023-09-26T11:30:21.120Z,4.40
2023-09-26T11:32:56.423Z,3.20
2023-09-26T11:35:27.151Z,3.90
2023-09-26T11:37:56.115Z,3.00
2023-09-26T11:40:29.608Z,3.50
2023-09-26T11:43:04.682Z,3.60
2023-09-26T11:45:35.448Z,3.10
2023-09-26T11:48:07.389Z,2.90
2023-09-26T11:50:41.538Z,3.30
2023-09-26T11:53:10.898Z,3.00
2023-09-26T11:55:40.295Z,3.00
2023-09-26T11:58:08.938Z,3.40
2023-09-26T12:00:37.366Z,2.90
2023-09-26T12:03:05.989Z,4.00
2023-09-26T12:05:36.621Z,3.00
2023-09-26T12:08:05.415Z,3.10
2023-09-26T12:10:34.527Z,3.40
2023-09-26T12:13:08.022Z,3.20
2023-09-26T12:15:36.789Z,3.00
2023-09-26T12:18:05.793Z,3.70
2023-09-26T12:20:34.984Z,3.60
2023-09-26T12:23:03.964Z,3.10
2023-09-26T12:25:32.965Z,2.70
2023-09-26T12:28:01.597Z,3.10
2023-09-26T12:30:30.187Z,3.30
2023-09-26T12:32:58.801Z,3.00
2023-09-26T12:35:27.398Z,3.30
2023-09-26T12:37:56.066Z,3.60
2023-09-26T12:40:24.775Z,12.80
2023-09-26T12:42:53.833Z,3.10
2023-09-26T12:45:22.291Z,3.10
2023-09-26T12:47:50.807Z,2.90
2023-09-26T12:50:19.387Z,3.50
2023-09-26T12:52:48.684Z,3.50
2023-09-26T12:55:18.177Z,3.20
2023-09-26T12:57:46.787Z,3.60
2023-09-26T13:00:15.843Z,3.30
2023-09-26T13:02:44.439Z,3.10
2023-09-26T13:05:13.708Z,3.40
2023-09-26T13:07:42.327Z,3.00
2023-09-26T13:10:11.752Z,3.70
2023-09-26T13:12:41.514Z,3.40
2023-09-26T13:15:10.716Z,3.90
2023-09-26T13:17:40.053Z,4.10
2023-09-26T13:20:12.705Z,3.40
2023-09-26T13:22:41.878Z,2.90
2023-09-26T13:25:10.537Z,3.60
2023-09-26T13:27:39.367Z,3.00
2023-09-26T13:30:08.957Z,3.20
2023-09-26T13:32:37.567Z,3.70
2023-09-26T13:35:06.986Z,3.70
2023-09-26T13:37:38.328Z,3.70
2023-09-26T13:40:07.549Z,3.50
2023-09-26T13:42:36.324Z,3.20
2023-09-26T13:45:05.803Z,3.90
2023-09-26T13:47:35.501Z,4.00
2023-09-26T13:50:04.654Z,3.40
2023-09-26T13:52:33.170Z,2.90
2023-09-26T13:55:01.687Z,3.70
2023-09-26T13:57:30.175Z,3.50
2023-09-26T13:59:58.767Z,3.20
2023-09-26T14:02:27.331Z,3.50
2023-09-26T14:05:09.616Z,3.60
2023-09-26T14:07:44.448Z,3.60
2023-09-26T14:10:13.370Z,3.80
2023-09-26T14:12:42.043Z,3.80
2023-09-26T14:15:10.939Z,4.00
2023-09-26T14:17:40.004Z,3.40
2023-09-26T14:20:09.130Z,3.10
2023-09-26T14:22:39.699Z,3.70
2023-09-26T14:25:12.089Z,3.70
2023-09-26T14:27:40.979Z,3.00
2023-09-26T14:30:12.608Z,3.80
2023-09-26T14:32:43.602Z,3.20
2023-09-26T14:35:12.875Z,3.50
2023-09-26T14:37:41.623Z,4.70
2023-09-26T14:40:11.557Z,4.60
2023-09-26T14:42:40.764Z,8.20
2023-09-26T14:45:09.752Z,8.40
2023-09-26T14:47:38.373Z,5.20
2023-09-26T14:50:09.284Z,14.90
2023-09-26T14:52:37.899Z,11.90
2023-09-26T14:55:07.310Z,7.90
2023-09-26T14:57:35.940Z,7.00
2023-09-26T15:00:05.239Z,5.10
2023-09-26T15:02:33.815Z,4.00
2023-09-26T15:05:02.751Z,3.50
2023-09-26T15:07:32.375Z,3.50
2023-09-26T15:10:01.058Z,3.40
2023-09-26T15:12:29.550Z,3.30
2023-09-26T15:14:58.113Z,3.10
2023-09-26T15:17:27.483Z,3.60
2023-09-26T15:19:56.069Z,3.00
2023-09-26T15:22:24.833Z,3.90
2023-09-26T15:24:53.518Z,4.10
2023-09-26T15:27:22.182Z,4.00
2023-09-26T15:29:51.257Z,3.70
2023-09-26T15:32:19.859Z,3.40
2023-09-26T15:34:48.457Z,3.90
2023-09-26T15:37:17.145Z,4.60
2023-09-26T15:39:45.672Z,3.40
2023-09-26T15:42:14.499Z,3.70
2023-09-26T15:44:43.920Z,5.90
2023-09-26T15:47:13.216Z,5.90
2023-09-26T15:49:50.420Z,6.30
2023-09-26T15:52:19.495Z,5.80
2023-09-26T15:54:48.065Z,5.50
2023-09-26T15:57:16.787Z,8.50
2023-09-26T15:59:45.422Z,8.10
2023-09-26T16:02:14.208Z,5.30
2023-09-26T16:04:42.804Z,4.90
2023-09-26T16:07:11.609Z,5.60
2023-09-26T16:09:40.134Z,6.20
2023-09-26T16:12:09.541Z,5.20
2023-09-26T16:14:38.014Z,76.70
2023-09-26T16:17:06.543Z,53.50
2023-09-26T16:19:35.415Z,22.20
2023-09-26T16:22:03.973Z,41.00
2023-09-26T16:24:32.452Z,23.70
2023-09-26T16:27:02.368Z,46.10
2023-09-26T16:29:31.616Z,68.60
2023-09-26T16:32:00.470Z,94.90
2023-09-26T16:34:29.236Z,85.50
2023-09-26T16:36:57.724Z,47.70
2023-09-26T16:39:26.308Z,56.30
2023-09-26T16:41:54.834Z,49.20
2023-09-26T16:44:23.413Z,62.60
2023-09-26T16:46:52.333Z,55.60
2023-09-26T16:49:21.385Z,59.00
2023-09-26T16:51:50.603Z,44.60
2023-09-26T16:54:19.689Z,38.90
2023-09-26T16:56:48.485Z,24.10
2023-09-26T16:59:16.957Z,19.20
2023-09-26T17:01:45.583Z,15.80
2023-09-26T17:04:14.482Z,13.80
2023-09-26T17:06:47.325Z,8.70
2023-09-26T17:09:15.998Z,6.50
2023-09-26T17:11:44.529Z,5.70
2023-09-26T17:14:13.096Z,5.40
2023-09-26T17:16:41.716Z,5.80
2023-09-26T17:19:10.278Z,5.80
2023-09-26T17:21:38.813Z,5.30
2023-09-26T17:24:07.852Z,4.40
2023-09-26T17:26:36.385Z,4.70
2023-09-26T17:29:05.447Z,4.80
2023-09-26T17:31:34.399Z,4.50
2023-09-26T17:34:02.999Z,4.80
2023-09-26T17:36:31.788Z,4.40
2023-09-26T17:39:01.570Z,5.00
2023-09-26T17:41:31.927Z,4.00
2023-09-26T17:44:00.468Z,5.20
2023-09-26T17:46:29.370Z,5.10
2023-09-26T17:48:58.284Z,5.00
2023-09-26T17:51:27.120Z,4.70
2023-09-26T17:53:58.623Z,4.70
2023-09-26T17:56:27.417Z,4.70
2023-09-26T17:58:56.029Z,4.40
2023-09-26T18:01:24.623Z,4.60
2023-09-26T18:03:53.339Z,4.90
2023-09-26T18:06:22.055Z,4.30
2023-09-26T18:08:50.637Z,4.90
2023-09-26T18:11:19.150Z,4.10
2023-09-26T18:13:47.833Z,4.40
2023-09-26T18:16:16.638Z,4.40
2023-09-26T18:18:45.165Z,4.20
2023-09-26T18:21:13.804Z,4.00
2023-09-26T18:23:42.245Z,4.10
2023-09-26T18:26:10.811Z,4.30
2023-09-26T18:28:39.318Z,4.50
2023-09-26T18:31:08.090Z,4.40
2023-09-26T18:33:37.128Z,4.40
2023-09-26T18:36:08.602Z,4.30
2023-09-26T18:38:39.323Z,4.30
2023-09-26T18:41:08.000Z,4.00
2023-09-26T18:43:36.892Z,4.20
2023-09-26T18:46:10.512Z,3.80
2023-09-26T18:48:40.647Z,4.40
2023-09-26T18:51:09.231Z,4.50
2023-09-26T18:53:37.693Z,5.20
2023-09-26T18:56:06.962Z,4.40
2023-09-26T18:58:35.606Z,4.60
2023-09-26T19:01:04.231Z,4.10
2023-09-26T19:03:33.121Z,4.00
2023-09-26T19:06:03.117Z,4.30
2023-09-26T19:08:31.873Z,4.10
2023-09-26T19:11:00.879Z,4.30
2023-09-26T19:13:29.592Z,3.90
2023-09-26T19:15:58.928Z,3.80
2023-09-26T19:18:27.480Z,4.10
2023-09-26T19:20:56.267Z,5.00
2023-09-26T19:23:24.889Z,4.80
2023-09-26T19:25:53.536Z,4.60
2023-09-26T19:28:22.252Z,4.30
2023-09-26T19:30:50.909Z,4.80
2023-09-26T19:33:19.452Z,4.00
2023-09-26T19:35:48.078Z,3.60
2023-09-26T19:38:16.936Z,4.20
2023-09-26T19:40:45.871Z,4.20
2023-09-26T19:43:14.478Z,4.50
2023-09-26T19:45:42.967Z,4.20
2023-09-26T19:48:11.781Z,4.50
2023-09-26T19:50:40.842Z,3.70
2023-09-26T19:53:12.483Z,3.90
2023-09-26T19:55:46.442Z,3.90
2023-09-26T19:58:15.089Z,5.00
2023-09-26T20:00:44.593Z,4.80
2023-09-26T20:03:13.076Z,4.80
2023-09-26T20:05:41.860Z,3.70
2023-09-26T20:08:10.638Z,4.10
2023-09-26T20:10:39.325Z,4.20
2023-09-26T20:13:09.250Z,3.80
2023-09-26T20:15:37.774Z,4.60
2023-09-26T20:18:07.416Z,4.20
2023-09-26T20:20:35.873Z,4.10
2023-09-26T20:23:07.120Z,4.20
2023-09-26T20:25:35.998Z,3.90
2023-09-26T20:28:04.782Z,5.10
2023-09-26T20:30:34.829Z,5.10
2023-09-26T20:33:05.181Z,5.40
2023-09-26T20:35:33.804Z,4.90
2023-09-26T20:38:02.503Z,4.80
2023-09-26T20:40:31.131Z,5.50
2023-09-26T20:42:59.620Z,4.40
2023-09-26T20:45:28.184Z,3.90
2023-09-26T20:47:56.715Z,4.30
2023-09-26T20:50:25.260Z,3.80
2023-09-26T20:52:53.853Z,3.60
2023-09-26T20:55:22.352Z,4.80
2023-09-26T20:57:51.103Z,4.60
2023-09-26T21:00:19.986Z,4.00
2023-09-26T21:02:48.833Z,3.90
2023-09-26T21:05:17.664Z,4.10
2023-09-26T21:07:46.178Z,4.30
2023-09-26T21:10:16.884Z,4.20
2023-09-26T21:12:45.890Z,3.80
2023-09-26T21:15:14.519Z,4.00
2023-09-26T21:17:43.093Z,4.70
2023-09-26T21:20:12.194Z,4.10
2023-09-26T21:22:41.379Z,4.10
2023-09-26T21:25:10.424Z,4.40
2023-09-26T21:27:40.824Z,4.40
2023-09-26T21:30:10.201Z,4.20
2023-09-26T21:32:39.897Z,4.10
2023-09-26T21:35:09.031Z,4.30
2023-09-26T21:37:37.708Z,4.50
2023-09-26T21:40:07.158Z,4.10
2023-09-26T21:42:35.595Z,4.30
2023-09-26T21:45:04.359Z,4.00
2023-09-26T21:47:33.098Z,4.00
2023-09-26T21:50:04.438Z,4.00
2023-09-26T21:52:33.125Z,4.20
2023-09-26T21:55:02.983Z,3.40
2023-09-26T21:57:31.522Z,4.00
2023-09-26T21:59:59.994Z,3.90
2023-09-26T22:02:28.578Z,4.20
2023-09-26T22:04:57.184Z,3.60
2023-09-26T22:07:26.614Z,3.70
2023-09-26T22:09:55.608Z,4.60
2023-09-26T22:12:26.597Z,4.30
2023-09-26T22:14:56.659Z,4.00
2023-09-26T22:17:26.793Z,4.30
2023-09-26T22:19:55.578Z,4.70
2023-09-26T22:22:24.203Z,3.70
2023-09-26T22:24:52.682Z,4.30
2023-09-26T22:27:23.194Z,3.90
2023-09-26T22:29:51.685Z,4.00
2023-09-26T22:32:20.431Z,4.10
2023-09-26T22:34:50.063Z,4.70
2023-09-26T22:37:18.866Z,4.40
2023-09-26T22:39:47.609Z,4.10
2023-09-26T22:42:17.585Z,4.00
2023-09-26T22:44:46.612Z,4.60
2023-09-26T22:47:15.882Z,4.00
2023-09-26T22:49:45.084Z,4.10
2023-09-26T22:52:14.005Z,4.00
2023-09-26T22:54:43.263Z,3.70
2023-09-26T22:57:11.876Z,3.60
2023-09-26T22:59:40.924Z,4.40
2023-09-26T23:02:09.592Z,3.80
2023-09-26T23:04:39.232Z,3.20
2023-09-26T23:07:08.308Z,3.80
2023-09-26T23:09:37.752Z,3.70
2023-09-26T23:12:06.394Z,4.10
2023-09-26T23:14:34.983Z,3.70
2023-09-26T23:17:03.998Z,4.90
2023-09-26T23:19:32.561Z,4.40
2023-09-26T23:22:01.814Z,4.10
2023-09-26T23:24:30.495Z,3.80
2023-09-26T23:26:59.527Z,3.90
2023-09-26T23:29:29.153Z,3.90
2023-09-26T23:31:57.815Z,4.40
2023-09-26T23:34:26.966Z,4.20
2023-09-26T23:36:56.416Z,3.30
2023-09-26T23:39:25.105Z,4.00
2023-09-26T23:41:53.687Z,3.70
2023-09-26T23:44:22.218Z,4.00
2023-09-26T23:46:51.004Z,4.10
2023-09-26T23:49:19.444Z,5.00
2023-09-26T23:51:48.041Z,4.10
2023-09-26T23:54:16.662Z,4.10
2023-09-26T23:56:45.154Z,3.90
2023-09-26T23:59:13.733Z,4.70
